createdAt,value
2022-10-23T00:01:37.523Z,14.40
2022-10-23T00:05:20.490Z,14.50
2022-10-23T00:09:04.017Z,14.50
2022-10-23T00:12:46.486Z,14.50
2022-10-23T00:16:28.966Z,14.50
2022-10-23T00:20:13.634Z,14.50
2022-10-23T00:23:55.495Z,14.50
2022-10-23T00:27:38.812Z,14.50
2022-10-23T00:31:23.880Z,14.50
2022-10-23T00:35:06.038Z,14.50
2022-10-23T00:38:48.663Z,14.50
2022-10-23T00:42:31.517Z,14.50
2022-10-23T00:46:13.222Z,14.50
2022-10-23T00:49:58.103Z,14.50
2022-10-23T00:53:40.053Z,14.50
2022-10-23T00:57:21.840Z,14.50
2022-10-23T01:01:17.336Z,14.50
2022-10-23T01:04:59.588Z,14.50
2022-10-23T01:08:46.192Z,14.50
2022-10-23T01:12:49.151Z,14.50
2022-10-23T01:16:42.586Z,14.50
2022-10-23T01:20:36.101Z,14.50
2022-10-23T01:24:37.225Z,14.50
2022-10-23T01:28:30.445Z,14.50
2022-10-23T01:32:20.863Z,14.50
2022-10-23T01:36:10.844Z,14.50
2022-10-23T01:39:58.834Z,14.50
2022-10-23T01:44:07.005Z,14.50
2022-10-23T01:47:50.792Z,14.60
2022-10-23T01:51:34.858Z,14.60
2022-10-23T01:55:17.264Z,14.50
2022-10-23T01:59:06.717Z,14.60
2022-10-23T02:02:51.106Z,14.60
2022-10-23T02:06:33.099Z,14.60
2022-10-23T02:10:16.044Z,14.60
2022-10-23T02:14:25.693Z,14.60
2022-10-23T02:18:21.335Z,14.60
2022-10-23T02:22:25.732Z,14.60
2022-10-23T02:26:22.771Z,14.60
2022-10-23T02:30:07.759Z,14.60
2022-10-23T02:33:49.856Z,14.70
2022-10-23T02:37:31.688Z,14.60
2022-10-23T02:41:37.609Z,14.60
2022-10-23T02:46:04.525Z,14.60
2022-10-23T02:50:12.932Z,14.60
2022-10-23T02:54:08.347Z,14.60
2022-10-23T02:58:10.517Z,14.70
2022-10-23T03:02:13.332Z,14.60
2022-10-23T03:05:55.416Z,14.60
2022-10-23T03:09:37.322Z,14.60
2022-10-23T03:13:19.733Z,14.70
2022-10-23T03:17:02.217Z,14.70
2022-10-23T03:20:43.916Z,14.70
2022-10-23T03:24:25.665Z,14.70
2022-10-23T03:28:07.491Z,14.70
2022-10-23T03:31:49.235Z,14.70
2022-10-23T03:35:32.423Z,14.80
2022-10-23T03:39:14.290Z,14.80
2022-10-23T03:42:56.325Z,14.80
2022-10-23T03:46:38.075Z,14.80
2022-10-23T03:50:19.977Z,14.80
2022-10-23T03:54:02.231Z,14.80
2022-10-23T03:57:43.975Z,14.80
2022-10-23T04:01:26.455Z,14.80
2022-10-23T04:05:08.468Z,14.80
2022-10-23T04:08:50.302Z,14.70
2022-10-23T04:12:32.276Z,14.60
2022-10-23T04:16:14.089Z,14.60
2022-10-23T04:19:58.405Z,14.70
2022-10-23T04:23:40.386Z,14.70
2022-10-23T04:27:22.397Z,14.70
2022-10-23T04:31:04.400Z,14.70
2022-10-23T04:34:46.177Z,14.70
2022-10-23T04:38:28.002Z,14.80
2022-10-23T04:42:09.727Z,14.80
2022-10-23T04:45:51.699Z,14.80
2022-10-23T04:49:33.642Z,14.80
2022-10-23T04:53:15.346Z,14.90
2022-10-23T04:56:57.152Z,14.90
2022-10-23T05:00:39.289Z,14.90
2022-10-23T05:04:21.427Z,14.90
2022-10-23T05:08:03.418Z,14.90
2022-10-23T05:11:45.130Z,14.90
2022-10-23T05:15:26.951Z,14.90
2022-10-23T05:19:13.295Z,15.00
2022-10-23T05:22:56.934Z,15.00
2022-10-23T05:26:38.651Z,15.10
2022-10-23T05:30:20.460Z,15.10
2022-10-23T05:34:02.230Z,15.00
2022-10-23T05:37:46.587Z,15.10
2022-10-23T05:41:28.415Z,15.00
2022-10-23T05:45:10.687Z,15.00
2022-10-23T05:48:52.948Z,14.90
2022-10-23T05:52:34.830Z,14.80
2022-10-23T05:56:16.638Z,14.70
2022-10-23T05:59:59.633Z,14.60
2022-10-23T06:03:41.490Z,14.60
2022-10-23T06:07:25.594Z,14.50
2022-10-23T06:11:13.151Z,14.50
2022-10-23T06:14:54.905Z,14.50
2022-10-23T06:18:36.658Z,14.40
2022-10-23T06:26:07.228Z,14.30
2022-10-23T06:29:49.474Z,14.20
2022-10-23T06:33:31.278Z,14.20
2022-10-23T06:37:13.110Z,14.10
2022-10-23T06:40:56.534Z,14.20
2022-10-23T06:44:38.291Z,14.20
2022-10-23T06:48:20.043Z,14.10
2022-10-23T06:52:01.772Z,14.10
2022-10-23T06:55:43.576Z,14.00
2022-10-23T06:59:25.447Z,14.00
2022-10-23T07:03:09.086Z,14.00
2022-10-23T07:06:50.798Z,14.00
2022-10-23T07:10:32.568Z,14.00
2022-10-23T07:14:14.359Z,13.90
2022-10-23T07:17:56.521Z,14.00
2022-10-23T07:21:38.293Z,14.00
2022-10-23T07:25:21.252Z,14.10
2022-10-23T07:29:03.164Z,14.10
2022-10-23T07:32:45.024Z,14.20
2022-10-23T07:36:26.776Z,14.20
2022-10-23T07:40:09.366Z,14.30
2022-10-23T07:43:51.161Z,14.20
2022-10-23T07:47:33.068Z,14.30
2022-10-23T07:51:16.587Z,14.30
2022-10-23T07:54:58.355Z,14.30
2022-10-23T07:58:40.205Z,14.30
2022-10-23T08:02:22.115Z,14.30
2022-10-23T08:06:04.016Z,14.40
2022-10-23T08:09:45.714Z,14.40
2022-10-23T08:13:27.492Z,14.50
2022-10-23T08:17:09.980Z,14.50
2022-10-23T08:20:53.069Z,14.50
2022-10-23T08:24:34.795Z,14.40
2022-10-23T08:28:16.750Z,14.30
2022-10-23T08:31:58.455Z,14.10
2022-10-23T08:35:40.323Z,14.10
2022-10-23T08:39:22.062Z,14.00
2022-10-23T08:43:20.502Z,13.90
2022-10-23T08:47:16.937Z,13.90
2022-10-23T08:51:07.743Z,13.90
2022-10-23T08:54:53.411Z,13.90
2022-10-23T08:58:48.388Z,13.90
2022-10-23T09:02:35.966Z,14.10
2022-10-23T09:06:32.395Z,14.40
2022-10-23T09:10:20.409Z,15.40
2022-10-23T09:14:21.671Z,16.40
2022-10-23T09:18:15.439Z,17.40
2022-10-23T09:21:58.273Z,18.10
2022-10-23T09:25:41.757Z,18.70
2022-10-23T09:29:33.114Z,19.20
2022-10-23T09:33:26.778Z,19.80
2022-10-23T09:37:27.154Z,20.20
2022-10-23T09:41:36.521Z,20.40
2022-10-23T09:45:42.621Z,19.90
2022-10-23T09:49:27.493Z,19.50
2022-10-23T09:53:18.105Z,19.30
2022-10-23T09:57:15.263Z,19.60
2022-10-23T10:00:57.586Z,20.10
2022-10-23T10:04:41.636Z,20.60
2022-10-23T10:08:32.194Z,21.00
2022-10-23T10:12:49.938Z,21.10
2022-10-23T10:16:52.055Z,21.20
2022-10-23T10:20:48.721Z,20.80
2022-10-23T10:24:36.175Z,20.20
2022-10-23T10:28:41.555Z,20.00
2022-10-23T10:32:57.186Z,19.90
2022-10-23T10:36:38.873Z,19.40
2022-10-23T10:40:38.272Z,19.00
2022-10-23T10:44:29.407Z,18.40
2022-10-23T10:48:22.961Z,18.10
2022-10-23T10:52:24.035Z,17.70
2022-10-23T10:56:12.498Z,17.60
2022-10-23T10:59:57.614Z,18.20
2022-10-23T11:03:41.564Z,19.10
2022-10-23T11:07:28.366Z,20.10
2022-10-23T11:11:21.038Z,20.50
2022-10-23T11:15:03.872Z,20.90
2022-10-23T11:18:58.208Z,21.10
2022-10-23T11:22:57.926Z,21.10
2022-10-23T11:27:02.029Z,21.60
2022-10-23T11:31:12.290Z,21.60
2022-10-23T11:35:13.908Z,21.50
2022-10-23T11:39:06.829Z,21.30
2022-10-23T11:42:50.681Z,21.50
2022-10-23T11:46:36.784Z,22.20
2022-10-23T11:50:31.342Z,22.60
2022-10-23T11:54:16.259Z,22.30
2022-10-23T11:58:14.734Z,22.00
2022-10-23T12:02:00.857Z,21.80
2022-10-23T12:05:45.525Z,21.70
2022-10-23T12:09:36.216Z,21.50
2022-10-23T12:13:39.134Z,22.00
2022-10-23T12:17:26.353Z,22.90
2022-10-23T12:21:18.833Z,22.70
2022-10-23T12:25:17.299Z,22.50
2022-10-23T12:29:14.861Z,22.00
2022-10-23T12:33:18.877Z,21.80
2022-10-23T12:37:08.333Z,22.70
2022-10-23T12:41:14.406Z,23.00
2022-10-23T12:45:21.545Z,23.70
2022-10-23T12:49:12.225Z,23.40
2022-10-23T12:53:01.213Z,22.90
2022-10-23T12:56:44.267Z,22.90
2022-10-23T13:00:29.703Z,23.30
2022-10-23T13:04:14.130Z,23.60
2022-10-23T13:07:58.346Z,23.90
2022-10-23T13:11:40.256Z,23.90
2022-10-23T13:15:23.465Z,23.90
2022-10-23T13:19:05.203Z,24.50
2022-10-23T13:23:00.243Z,24.90
2022-10-23T13:26:45.529Z,25.60
2022-10-23T13:30:38.007Z,26.30
2022-10-23T13:34:25.998Z,26.60
2022-10-23T13:38:10.317Z,26.70
2022-10-23T13:41:52.713Z,27.50
2022-10-23T13:45:35.643Z,27.90
2022-10-23T13:49:17.710Z,27.60
2022-10-23T13:53:01.112Z,26.70
2022-10-23T13:56:45.080Z,25.30
2022-10-23T14:00:27.011Z,24.20
2022-10-23T14:04:09.498Z,23.30
2022-10-23T14:07:51.188Z,22.60
2022-10-23T14:11:33.816Z,21.90
2022-10-23T14:15:15.833Z,21.40
2022-10-23T14:18:58.223Z,20.70
2022-10-23T14:22:40.023Z,20.10
2022-10-23T14:26:27.766Z,19.60
2022-10-23T14:30:10.096Z,19.20
2022-10-23T14:33:57.222Z,18.80
2022-10-23T14:37:39.635Z,18.40
2022-10-23T14:41:21.617Z,18.10
2022-10-23T14:45:04.167Z,17.70
2022-10-23T14:48:48.193Z,17.40
2022-10-23T14:52:33.864Z,17.20
2022-10-23T14:56:16.286Z,16.90
2022-10-23T14:59:58.013Z,16.70
2022-10-23T15:03:39.839Z,16.40
2022-10-23T15:07:21.873Z,16.20
2022-10-23T15:11:07.689Z,16.00
2022-10-23T15:14:52.038Z,15.90
2022-10-23T15:22:23.126Z,15.80
2022-10-23T15:26:11.794Z,15.80
2022-10-23T15:29:53.938Z,15.80
2022-10-23T15:33:39.055Z,15.80
2022-10-23T15:37:20.811Z,15.80
2022-10-23T15:41:15.401Z,15.80
2022-10-23T15:44:57.191Z,15.80
2022-10-23T15:48:39.130Z,15.80
2022-10-23T15:52:20.922Z,15.90
2022-10-23T15:56:02.769Z,15.80
2022-10-23T15:59:44.566Z,15.90
2022-10-23T16:03:26.278Z,15.90
2022-10-23T16:07:08.970Z,15.90
2022-10-23T16:10:50.684Z,15.90
2022-10-23T16:14:32.405Z,15.80
2022-10-23T16:18:16.057Z,15.70
2022-10-23T16:21:57.798Z,15.60
2022-10-23T16:25:39.617Z,15.40
2022-10-23T16:29:23.558Z,15.40
2022-10-23T16:33:05.315Z,15.20
2022-10-23T16:36:48.108Z,15.10
2022-10-23T16:40:29.922Z,14.90
2022-10-23T16:44:12.168Z,14.90
2022-10-23T16:47:53.948Z,14.90
2022-10-23T16:51:35.935Z,14.90
2022-10-23T16:55:17.921Z,14.90
2022-10-23T16:59:00.357Z,14.80
2022-10-23T17:02:42.807Z,14.80
2022-10-23T17:06:35.799Z,14.90
2022-10-23T17:10:17.796Z,14.90
2022-10-23T17:14:05.896Z,14.90
2022-10-23T17:17:47.828Z,14.80
2022-10-23T17:21:33.548Z,14.80
2022-10-23T17:25:15.949Z,14.70
2022-10-23T17:29:00.451Z,14.70
2022-10-23T17:32:42.842Z,14.60
2022-10-23T17:36:27.035Z,14.60
2022-10-23T17:40:09.265Z,14.50
2022-10-23T17:43:51.888Z,14.50
2022-10-23T17:47:33.666Z,14.40
2022-10-23T17:51:24.107Z,14.40
2022-10-23T17:55:06.810Z,14.20
2022-10-23T17:58:50.340Z,14.10
2022-10-23T18:02:32.204Z,14.00
2022-10-23T18:06:17.304Z,14.00
2022-10-23T18:10:01.449Z,13.90
2022-10-23T18:13:44.579Z,13.80
2022-10-23T18:17:26.529Z,13.70
2022-10-23T18:21:09.450Z,13.70
2022-10-23T18:24:51.251Z,13.60
2022-10-23T18:28:33.218Z,13.60
2022-10-23T18:32:14.936Z,13.50
2022-10-23T18:35:56.905Z,13.40
2022-10-23T18:39:38.695Z,13.30
2022-10-23T18:43:41.938Z,13.30
2022-10-23T18:47:22.252Z,13.20
2022-10-23T18:51:04.046Z,13.10
2022-10-23T18:54:45.802Z,13.10
2022-10-23T18:58:27.770Z,13.00
2022-10-23T19:02:11.441Z,12.90
2022-10-23T19:05:53.555Z,12.90
2022-10-23T19:09:36.250Z,12.80
2022-10-23T19:13:18.153Z,12.80
2022-10-23T19:17:03.871Z,12.70
2022-10-23T19:20:45.887Z,12.70
2022-10-23T19:24:38.454Z,12.60
2022-10-23T19:28:20.247Z,12.50
2022-10-23T19:32:02.170Z,12.50
2022-10-23T19:35:43.908Z,12.50
2022-10-23T19:39:26.483Z,12.40
2022-10-23T19:43:08.743Z,12.50
2022-10-23T19:46:50.639Z,12.50
2022-10-23T19:50:32.459Z,12.50
2022-10-23T19:54:14.373Z,12.50
2022-10-23T19:57:56.119Z,12.50
2022-10-23T20:01:43.854Z,12.50
2022-10-23T20:05:28.408Z,12.50
2022-10-23T20:09:10.128Z,12.50
2022-10-23T20:12:56.883Z,12.60
2022-10-23T20:16:46.736Z,12.50
2022-10-23T20:20:28.522Z,12.60
2022-10-23T20:24:12.463Z,12.60
2022-10-23T20:27:54.620Z,12.50
2022-10-23T20:31:39.515Z,12.40
2022-10-23T20:35:21.537Z,12.40
2022-10-23T20:39:07.462Z,12.30
2022-10-23T20:42:51.375Z,12.20
2022-10-23T20:46:33.926Z,12.20
2022-10-23T20:50:19.993Z,12.20
2022-10-23T20:54:02.683Z,12.20
2022-10-23T20:57:44.937Z,12.20
2022-10-23T21:01:28.437Z,12.20
2022-10-23T21:05:10.224Z,12.20
2022-10-23T21:09:00.529Z,12.30
2022-10-23T21:12:42.881Z,12.30
2022-10-23T21:16:28.567Z,12.40
2022-10-23T21:20:10.779Z,12.50
2022-10-23T21:23:54.822Z,12.50
2022-10-23T21:27:38.692Z,12.60
2022-10-23T21:31:21.587Z,12.50
2022-10-23T21:35:03.911Z,12.50
2022-10-23T21:38:49.322Z,12.50
2022-10-23T21:42:31.607Z,12.50
2022-10-23T21:46:16.495Z,12.50
2022-10-23T21:49:58.331Z,12.50
2022-10-23T21:53:40.100Z,12.50
2022-10-23T21:57:22.336Z,12.60
2022-10-23T22:01:04.238Z,12.60
2022-10-23T22:04:46.230Z,12.60
2022-10-23T22:08:28.019Z,12.60
2022-10-23T22:12:11.217Z,12.60
2022-10-23T22:15:52.997Z,12.70
2022-10-23T22:19:34.909Z,12.70
2022-10-23T22:23:16.682Z,12.70
2022-10-23T22:26:59.363Z,12.80
2022-10-23T22:30:41.071Z,12.80
2022-10-23T22:34:47.864Z,12.80
2022-10-23T22:38:27.891Z,12.80
2022-10-23T22:42:09.709Z,12.80
2022-10-23T22:45:51.398Z,12.90
2022-10-23T22:49:33.168Z,12.90
2022-10-23T22:53:16.939Z,12.90
2022-10-23T22:56:58.986Z,13.00
2022-10-23T23:00:43.620Z,13.00
2022-10-23T23:04:37.398Z,13.00
2022-10-23T23:08:20.456Z,13.10
2022-10-23T23:12:02.151Z,13.00
2022-10-23T23:15:43.880Z,13.00
2022-10-23T23:19:26.606Z,13.00
2022-10-23T23:23:08.791Z,13.00
2022-10-23T23:26:50.877Z,13.00
2022-10-23T23:30:32.574Z,13.00
2022-10-23T23:34:14.297Z,12.90
2022-10-23T23:37:56.082Z,12.90
2022-10-23T23:41:37.928Z,12.90
2022-10-23T23:45:19.657Z,12.90
2022-10-23T23:49:01.467Z,12.80
2022-10-23T23:52:43.169Z,12.80
2022-10-23T23:56:25.075Z,12.80
